Time;durP1;ratioP1;P1;durP2;ratioP2;P2;SDS_P1;SDS_P2;PMS_P1;PMS_P2;Temp;Humidity;BMP_temperature;BMP_pressure;BME280_temperature;BME280_humidity;BME280_pressure;Samples;Min_cycle;Max_cycle;Signal;HPM_P1;HPM_P2
2023/05/14 00:01:01;;;;;;;;;;;;;;;14.72;52.70;95040.91;4228153;28;20342;-58
2023/05/14 00:03:02;;;;;;;;;;;;;;;14.73;52.32;95043.38;4228250;28;19935;-59
2023/05/14 00:05:04;;;;;;;;;;;;;;;14.77;52.38;95043.81;4228043;28;19924;-60
2023/05/14 00:07:06;;;;;;;;;;;;;;;14.83;52.09;95047.59;4225311;28;19927;-59
2023/05/14 00:09:07;;;;;;;;;;;;;;;14.83;52.67;95040.47;4213325;28;19924;-58
2023/05/14 00:11:09;;;;;;;;;;;;;;;14.77;52.63;95032.47;4220115;28;19923;-61
2023/05/14 00:13:11;;;;;;;;;;;;;;;14.80;52.15;95035.56;4228426;28;19924;-59
2023/05/14 00:15:12;;;;;;;;;;;;;;;14.73;52.09;95027.56;4223939;28;19965;-57
2023/05/14 00:17:14;;;;;;;;;;;;;;;14.65;51.89;95019.69;4223441;28;20020;-58
2023/05/14 00:19:16;;;;;;;;;;;;;;;14.58;52.26;95024.00;4219115;28;19973;-59
2023/05/14 00:21:18;;;;;;;;;;;;;;;14.52;52.48;95024.72;4217178;28;19923;-58
2023/05/14 00:23:20;;;;;;;;;;;;;;;14.56;52.64;95023.38;4214039;28;19971;-58
2023/05/14 00:25:21;;;;;;;;;;;;;;;14.50;52.63;95018.78;4217880;28;19931;-58
2023/05/14 00:27:23;;;;;;;;;;;;;;;14.50;52.67;95013.53;4216178;28;19955;-58
2023/05/14 00:29:24;;;;;;;;;;;;;;;14.50;52.80;95013.53;4221990;28;20433;-58
2023/05/14 00:31:26;;;;;;;;;;;;;;;14.56;52.74;95018.09;4212904;28;19943;-59
2023/05/14 00:33:27;;;;;;;;;;;;;;;14.63;52.63;95024.31;4224173;28;20625;-59
2023/05/14 00:35:29;;;;;;;;;;;;;;;14.66;52.80;95015.25;4222565;28;19973;-58
2023/05/14 00:37:30;;;;;;;;;;;;;;;14.65;52.81;95011.78;4214737;28;19959;-59
2023/05/14 00:39:32;;;;;;;;;;;;;;;14.59;52.75;95015.13;4230830;28;19969;-58
2023/05/14 00:41:34;;;;;;;;;;;;;;;14.62;52.49;95017.41;4218144;28;19955;-58
2023/05/14 00:43:35;;;;;;;;;;;;;;;14.61;52.60;95009.69;4222191;28;20015;-58
2023/05/14 00:45:37;;;;;;;;;;;;;;;14.64;52.38;95004.84;4222756;28;20320;-57
2023/05/14 00:47:39;;;;;;;;;;;;;;;14.61;52.31;95013.13;4227292;28;19924;-58
2023/05/14 00:49:40;;;;;;;;;;;;;;;14.61;52.36;95015.78;4216709;28;20007;-54
2023/05/14 00:51:45;;;;;;;;;;;;;;;14.65;52.27;95022.34;4223003;28;20047;-59
2023/05/14 00:53:47;;;;;;;;;;;;;;;14.67;52.33;95011.59;4223053;28;20018;-59
2023/05/14 00:55:49;;;;;;;;;;;;;;;14.63;52.20;95003.22;4229051;28;19965;-59
2023/05/14 00:57:50;;;;;;;;;;;;;;;14.59;52.33;95007.22;4226046;28;20414;-60
2023/05/14 00:59:52;;;;;;;;;;;;;;;14.60;52.22;95006.19;4217970;28;20244;-60
2023/05/14 01:01:54;;;;;;;;;;;;;;;14.57;52.31;95001.28;4215073;28;20463;-59
2023/05/14 01:03:56;;;;;;;;;;;;;;;14.48;52.03;95000.50;4206934;28;19920;-57
2023/05/14 01:06:05;;;;;;;;;;;;;;;14.41;52.68;95001.38;4211265;28;19939;-59
2023/05/14 01:08:13;;;;;;;;;;;;;;;14.35;52.22;95005.53;4219545;28;20403;-58
2023/05/14 01:10:16;;;;;;;;;;;;;;;14.36;52.28;95004.53;4224539;28;19926;-57
2023/05/14 01:12:18;;;;;;;;;;;;;;;14.42;51.94;95005.66;4227357;28;19920;-58
2023/05/14 01:14:21;;;;;;;;;;;;;;;14.46;51.90;94994.59;4218763;28;19920;-59
2023/05/14 01:16:23;;;;;;;;;;;;;;;14.51;51.50;94997.50;4223528;28;19923;-59
2023/05/14 01:18:25;;;;;;;;;;;;;;;14.54;51.61;94991.09;4218117;28;19928;-60
2023/05/14 01:20:26;;;;;;;;;;;;;;;14.58;51.41;95002.09;4219410;28;20251;-59
2023/05/14 01:22:28;;;;;;;;;;;;;;;14.58;51.57;95013.47;4220879;28;20332;-60
2023/05/14 01:24:29;;;;;;;;;;;;;;;14.62;51.22;95014.75;4214944;28;19971;-61
2023/05/14 01:26:31;;;;;;;;;;;;;;;14.58;51.63;95021.38;4221971;28;20014;-60
2023/05/14 01:28:32;;;;;;;;;;;;;;;14.55;51.53;95024.38;4213690;28;20535;-59
2023/05/14 01:30:39;;;;;;;;;;;;;;;14.54;51.22;95025.34;4219204;28;19927;-60
2023/05/14 01:32:40;;;;;;;;;;;;;;;14.48;50.91;95024.22;4217973;28;19927;-60
2023/05/14 01:34:42;;;;;;;;;;;;;;;14.33;50.90;95021.53;4222659;28;19924;-60
2023/05/14 01:36:43;;;;;;;;;;;;;;;14.35;51.28;95026.63;4224495;28;19926;-60
2023/05/14 01:38:46;;;;;;;;;;;;;;;14.30;51.03;95031.56;4214465;28;20010;-60
2023/05/14 01:40:47;;;;;;;;;;;;;;;14.34;51.10;95025.78;4224833;28;20361;-61
2023/05/14 01:42:50;;;;;;;;;;;;;;;14.34;50.92;95025.78;4204366;28;19927;-61
2023/05/14 01:44:52;;;;;;;;;;;;;;;14.38;51.00;95021.00;4226696;28;19966;-59
2023/05/14 01:46:53;;;;;;;;;;;;;;;14.41;50.50;95017.19;4227578;28;20469;-61
2023/05/14 01:48:55;;;;;;;;;;;;;;;14.43;50.64;95017.81;4228263;28;20431;-64
2023/05/14 01:50:56;;;;;;;;;;;;;;;14.48;50.65;95018.97;4228424;28;20506;-59
2023/05/14 01:52:58;;;;;;;;;;;;;;;14.43;50.18;95020.47;4213009;28;20501;-58
2023/05/14 01:54:59;;;;;;;;;;;;;;;14.42;50.97;95016.19;4213151;28;20412;-61
2023/05/14 01:57:01;;;;;;;;;;;;;;;14.36;50.51;95028.25;4222729;28;20446;-61
2023/05/14 01:59:02;;;;;;;;;;;;;;;14.27;51.61;95030.13;4227717;28;20222;-60
2023/05/14 02:01:04;;;;;;;;;;;;;;;14.26;51.82;95025.84;4222526;28;19927;-60
2023/05/14 02:03:05;;;;;;;;;;;;;;;14.22;51.83;95024.56;4222527;28;20239;-60
2023/05/14 02:05:07;;;;;;;;;;;;;;;14.23;52.19;95028.00;4222150;28;20362;-60
2023/05/14 02:07:09;;;;;;;;;;;;;;;14.26;51.94;95027.66;4218727;28;20357;-59
2023/05/14 02:09:11;;;;;;;;;;;;;;;14.24;51.94;95024.34;4222282;28;20019;-59
2023/05/14 02:11:12;;;;;;;;;;;;;;;14.11;52.17;95020.50;4216171;28;19920;-60
2023/05/14 02:13:13;;;;;;;;;;;;;;;14.06;52.39;95027.25;4218568;28;19924;-61
2023/05/14 02:15:15;;;;;;;;;;;;;;;14.09;52.66;95021.66;4215157;28;19920;-60
2023/05/14 02:17:17;;;;;;;;;;;;;;;14.02;52.54;95028.59;4211136;28;19920;-60
2023/05/14 02:19:18;;;;;;;;;;;;;;;13.94;52.48;95029.47;4225795;28;19969;-60
2023/05/14 02:21:20;;;;;;;;;;;;;;;13.97;53.12;95028.31;4225984;28;20084;-59
2023/05/14 02:23:21;;;;;;;;;;;;;;;14.00;53.66;95034.03;4227801;28;19942;-61
2023/05/14 02:25:38;;;;;;;;;;;;;;;14.00;53.14;95038.50;4211858;28;19939;-59
2023/05/14 02:27:39;;;;;;;;;;;;;;;14.00;53.54;95039.31;4212771;28;19971;-59
2023/05/14 02:29:41;;;;;;;;;;;;;;;13.97;53.97;95038.84;4217063;28;19985;-59
2023/05/14 02:31:42;;;;;;;;;;;;;;;13.92;53.62;95042.81;4214915;28;19971;-58
2023/05/14 02:33:44;;;;;;;;;;;;;;;13.81;53.80;95029.19;4222105;28;20006;-60
2023/05/14 02:35:46;;;;;;;;;;;;;;;13.76;54.45;95032.31;4227145;28;20018;-61
2023/05/14 02:37:47;;;;;;;;;;;;;;;13.77;54.14;95043.69;4218686;28;19977;-60
2023/05/14 02:39:49;;;;;;;;;;;;;;;13.72;54.10;95041.56;4220825;28;19978;-60
2023/05/14 02:41:50;;;;;;;;;;;;;;;13.73;54.48;95053.75;4224898;28;19970;-61
2023/05/14 02:43:52;;;;;;;;;;;;;;;13.73;54.02;95053.75;4226311;28;19926;-60
2023/05/14 02:45:54;;;;;;;;;;;;;;;13.78;54.51;95058.50;4222635;28;19919;-60
2023/05/14 02:47:55;;;;;;;;;;;;;;;13.84;54.08;95057.81;4215186;28;19998;-59
2023/05/14 02:49:57;;;;;;;;;;;;;;;13.86;53.79;95063.75;4216216;28;20437;-62
2023/05/14 02:51:59;;;;;;;;;;;;;;;13.87;53.72;95066.22;4215258;28;20048;-61
2023/05/14 02:54:01;;;;;;;;;;;;;;;13.88;53.31;95067.03;4216715;28;20002;-62
2023/05/14 02:56:02;;;;;;;;;;;;;;;13.89;53.30;95074.75;4215714;28;20457;-61
2023/05/14 02:58:04;;;;;;;;;;;;;;;13.84;53.49;95065.72;4216576;28;19920;-59
2023/05/14 03:00:06;;;;;;;;;;;;;;;13.85;53.17;95064.72;4215818;28;20428;-61
2023/05/14 03:02:08;;;;;;;;;;;;;;;13.85;53.17;95059.44;4215869;28;20419;-60
2023/05/14 03:04:10;;;;;;;;;;;;;;;13.88;53.30;95061.75;4215571;28;19997;-60
2023/05/14 03:06:11;;;;;;;;;;;;;;;13.89;53.35;95066.84;4214156;28;20427;-59
2023/05/14 03:08:13;;;;;;;;;;;;;;;13.90;53.44;95060.59;4212845;28;20001;-60
2023/05/14 03:10:14;;;;;;;;;;;;;;;13.91;52.95;95041.16;4228226;28;20487;-59
2023/05/14 03:12:16;;;;;;;;;;;;;;;13.65;53.31;95036.16;4215901;28;19919;-61
2023/05/14 03:14:18;;;;;;;;;;;;;;;13.54;53.83;95033.06;4213924;28;20009;-60
2023/05/14 03:16:19;;;;;;;;;;;;;;;13.59;54.12;95033.38;4216206;28;19920;-60
2023/05/14 03:18:21;;;;;;;;;;;;;;;13.65;54.33;95037.97;4218669;28;19950;-62
2023/05/14 03:20:23;;;;;;;;;;;;;;;13.72;53.93;95036.28;4214902;28;19959;-60
2023/05/14 03:22:25;;;;;;;;;;;;;;;13.78;54.68;95042.69;4225075;28;19920;-60
2023/05/14 03:24:26;;;;;;;;;;;;;;;13.75;55.21;95037.78;4219310;28;19955;-60
2023/05/14 03:26:28;;;;;;;;;;;;;;;13.77;55.33;95041.88;4225256;28;20333;-60
2023/05/14 03:28:29;;;;;;;;;;;;;;;13.47;56.10;95022.41;4218611;28;20468;-62
2023/05/14 03:30:31;;;;;;;;;;;;;;;13.40;57.12;95045.94;4218032;28;20006;-60
2023/05/14 03:32:32;;;;;;;;;;;;;;;13.36;57.82;95051.69;4221841;28;20426;-61
2023/05/14 03:34:34;;;;;;;;;;;;;;;13.30;57.23;95055.81;4228136;28;19967;-59
2023/05/14 03:36:37;;;;;;;;;;;;;;;13.26;58.02;95062.38;4228413;28;19923;-58
2023/05/14 03:38:39;;;;;;;;;;;;;;;13.25;58.70;95060.72;4229803;28;19924;-57
2023/05/14 03:40:40;;;;;;;;;;;;;;;13.13;59.09;95048.91;4230077;28;19923;-60
2023/05/14 03:42:42;;;;;;;;;;;;;;;13.11;59.25;95039.34;4230173;28;20012;-60
2023/05/14 03:44:43;;;;;;;;;;;;;;;13.01;59.08;95040.53;4225630;28;20378;-60
2023/05/14 03:46:45;;;;;;;;;;;;;;;12.93;59.68;95043.16;4215106;28;19920;-59
2023/05/14 03:48:46;;;;;;;;;;;;;;;12.85;59.67;95041.34;4224012;28;19920;-59
2023/05/14 03:50:48;;;;;;;;;;;;;;;12.89;60.20;95048.75;4227441;28;19947;-58
2023/05/14 03:52:51;;;;;;;;;;;;;;;12.91;59.82;95054.66;4224783;28;19951;-60
2023/05/14 03:54:52;;;;;;;;;;;;;;;13.01;59.32;95049.22;4214039;28;20531;-57
2023/05/14 03:56:54;;;;;;;;;;;;;;;13.07;59.13;95051.19;4221700;28;19919;-60
2023/05/14 03:58:55;;;;;;;;;;;;;;;12.96;59.09;95053.34;4219530;28;20338;-59
2023/05/14 04:00:57;;;;;;;;;;;;;;;12.93;58.73;95048.41;4216110;28;19974;-60
2023/05/14 04:02:58;;;;;;;;;;;;;;;12.94;59.28;95045.63;4215643;28;19955;-60
2023/05/14 04:05:00;;;;;;;;;;;;;;;13.01;59.64;95051.84;4218425;28;20010;-60
2023/05/14 04:07:01;;;;;;;;;;;;;;;13.03;58.38;95057.78;4215594;28;20419;-59
2023/05/14 04:09:03;;;;;;;;;;;;;;;13.07;57.88;95061.72;4216915;28;20534;-57
2023/05/14 04:11:04;;;;;;;;;;;;;;;13.09;58.14;95059.75;4215515;28;20417;-59
2023/05/14 04:13:06;;;;;;;;;;;;;;;13.09;57.52;95058.94;4217687;28;19973;-59
2023/05/14 04:15:08;;;;;;;;;;;;;;;13.07;57.50;95064.34;4220080;28;19923;-60
2023/05/14 04:17:09;;;;;;;;;;;;;;;13.10;57.41;95066.66;4219089;28;19927;-60
2023/05/14 04:19:11;;;;;;;;;;;;;;;13.14;57.29;95069.75;4215976;28;19924;-61
2023/05/14 04:21:12;;;;;;;;;;;;;;;13.10;57.74;95079.00;4225104;28;20290;-60
2023/05/14 04:23:14;;;;;;;;;;;;;;;13.17;58.28;95077.34;4220958;28;20265;-60
2023/05/14 04:25:17;;;;;;;;;;;;;;;13.17;57.49;95058.94;4217314;28;19986;-60
2023/05/14 04:27:20;;;;;;;;;;;;;;;13.21;57.23;95075.22;4225952;28;19949;-59
2023/05/14 04:29:21;;;;;;;;;;;;;;;13.18;57.00;95078.97;4221151;28;19951;-60
2023/05/14 04:31:22;;;;;;;;;;;;;;;13.20;57.20;95079.63;4218501;28;20440;-59
2023/05/14 04:33:24;;;;;;;;;;;;;;;13.23;57.09;95084.56;4213285;28;19945;-58
2023/05/14 04:35:26;;;;;;;;;;;;;;;13.18;57.27;95080.78;4224918;28;20279;-60
2023/05/14 04:37:27;;;;;;;;;;;;;;;13.18;57.67;95081.59;4220671;28;19919;-61
2023/05/14 04:39:29;;;;;;;;;;;;;;;13.24;57.61;95088.03;4217944;28;20388;-60
2023/05/14 04:41:30;;;;;;;;;;;;;;;13.26;57.73;95101.84;4214725;28;19959;-59
2023/05/14 04:43:32;;;;;;;;;;;;;;;13.30;58.05;95090.84;4227687;28;20493;-61
2023/05/14 04:45:34;;;;;;;;;;;;;;;13.28;58.31;95094.59;4220292;28;19969;-58
2023/05/14 04:47:35;;;;;;;;;;;;;;;13.19;58.70;95106.13;4225778;28;20468;-59
2023/05/14 04:49:37;;;;;;;;;;;;;;;13.17;58.76;95113.34;4228108;28;19924;-61
2023/05/14 04:51:38;;;;;;;;;;;;;;;13.17;59.47;95114.16;4228122;28;19924;-60
2023/05/14 04:53:40;;;;;;;;;;;;;;;13.22;59.94;95117.13;4230018;28;20438;-58
2023/05/14 04:55:41;;;;;;;;;;;;;;;13.32;61.29;95119.63;4227638;28;20490;-60
2023/05/14 04:57:43;;;;;;;;;;;;;;;13.37;60.90;95127.03;4221484;28;20528;-60
2023/05/14 04:59:44;;;;;;;;;;;;;;;13.43;61.10;95129.00;4216787;28;19924;-59
2023/05/14 05:01:46;;;;;;;;;;;;;;;13.49;61.26;95126.50;4217018;28;19945;-61
2023/05/14 05:03:47;;;;;;;;;;;;;;;13.50;61.53;95133.41;4212372;28;19995;-59
2023/05/14 05:05:49;;;;;;;;;;;;;;;13.50;61.47;95153.66;4213844;28;20419;-61
2023/05/14 05:07:51;;;;;;;;;;;;;;;13.48;61.62;95148.53;4214120;28;19995;-60
2023/05/14 05:09:52;;;;;;;;;;;;;;;13.52;62.01;95151.69;4216278;28;20340;-59
2023/05/14 05:11:54;;;;;;;;;;;;;;;13.49;61.90;95152.03;4214343;28;19920;-59
2023/05/14 05:13:55;;;;;;;;;;;;;;;13.47;63.28;95165.34;4204583;28;19931;-60
2023/05/14 05:15:57;;;;;;;;;;;;;;;13.43;63.27;95163.22;4211087;28;19924;-60
2023/05/14 05:17:58;;;;;;;;;;;;;;;13.42;63.66;95161.53;4217433;28;19919;-60
2023/05/14 05:20:00;;;;;;;;;;;;;;;13.30;63.90;95161.06;4217315;28;19920;-60
2023/05/14 05:22:01;;;;;;;;;;;;;;;13.27;64.02;95169.25;4217690;28;20412;-60
2023/05/14 05:24:03;;;;;;;;;;;;;;;13.24;64.94;95169.59;4213220;28;19924;-60
2023/05/14 05:26:04;;;;;;;;;;;;;;;13.20;65.93;95176.97;4219499;28;19920;-58
2023/05/14 05:28:06;;;;;;;;;;;;;;;13.20;65.53;95173.53;4216294;28;20011;-60
2023/05/14 05:30:07;;;;;;;;;;;;;;;13.13;65.31;95167.28;4225245;28;19950;-59
2023/05/14 05:32:09;;;;;;;;;;;;;;;13.07;65.97;95164.28;4210106;28;19923;-58
2023/05/14 05:34:11;;;;;;;;;;;;;;;13.03;66.81;95162.97;4227988;28;19919;-60
2023/05/14 05:36:12;;;;;;;;;;;;;;;12.99;67.37;95166.09;4215720;28;19959;-60
2023/05/14 05:38:14;;;;;;;;;;;;;;;13.00;67.81;95173.84;4225418;28;19920;-60
2023/05/14 05:40:15;;;;;;;;;;;;;;;13.04;68.13;95174.34;4229249;28;20416;-59
2023/05/14 05:42:17;;;;;;;;;;;;;;;13.02;68.63;95171.88;4228274;28;19969;-60
2023/05/14 05:44:18;;;;;;;;;;;;;;;13.02;67.96;95171.88;4216861;28;19920;-60
2023/05/14 05:46:20;;;;;;;;;;;;;;;13.03;68.14;95180.56;4215124;28;19919;-59
2023/05/14 05:48:21;;;;;;;;;;;;;;;12.96;68.27;95179.59;4213994;28;19993;-60
2023/05/14 05:50:23;;;;;;;;;;;;;;;12.94;69.39;95179.72;4211777;28;19923;-58
2023/05/14 05:52:25;;;;;;;;;;;;;;;12.88;69.23;95178.59;4212044;28;20007;-59
2023/05/14 05:54:26;;;;;;;;;;;;;;;12.82;69.56;95179.22;4212521;28;19920;-60
2023/05/14 05:56:28;;;;;;;;;;;;;;;12.80;69.40;95183.81;4215153;28;19927;-61
2023/05/14 05:58:29;;;;;;;;;;;;;;;12.84;69.87;95184.31;4218622;28;19931;-61
2023/05/14 06:00:31;;;;;;;;;;;;;;;12.78;70.05;95169.19;4219099;28;19957;-60
2023/05/14 06:02:32;;;;;;;;;;;;;;;12.76;70.29;95171.16;4217890;28;19920;-61
2023/05/14 06:04:34;;;;;;;;;;;;;;;12.73;70.08;95168.84;4219342;28;20349;-61
2023/05/14 06:06:35;;;;;;;;;;;;;;;12.65;70.73;95174.91;4213742;28;19924;-60
2023/05/14 06:08:37;;;;;;;;;;;;;;;12.62;70.79;95175.22;4222162;28;19928;-60
2023/05/14 06:10:38;;;;;;;;;;;;;;;12.58;70.96;95168.63;4218548;28;19919;-61
2023/05/14 06:12:40;;;;;;;;;;;;;;;12.51;71.33;95181.59;4219451;28;20278;-63
2023/05/14 06:14:41;;;;;;;;;;;;;;;12.40;72.32;95184.50;4215813;28;19932;-60
2023/05/14 06:16:43;;;;;;;;;;;;;;;12.39;72.47;95186.31;4222776;28;19923;-61
2023/05/14 06:18:45;;;;;;;;;;;;;;;12.36;72.57;95176.13;4216858;28;20010;-60
2023/05/14 06:20:47;;;;;;;;;;;;;;;12.39;72.79;95175.81;4218219;28;20011;-62
2023/05/14 06:22:49;;;;;;;;;;;;;;;12.39;72.46;95180.22;4219619;28;20038;-62
2023/05/14 06:24:50;;;;;;;;;;;;;;;12.37;72.87;95174.31;4210208;28;20354;-59
2023/05/14 06:26:52;;;;;;;;;;;;;;;12.38;72.28;95168.09;4210527;28;19920;-61
2023/05/14 06:28:53;;;;;;;;;;;;;;;12.43;72.52;95171.91;4220113;28;20294;-58
2023/05/14 06:30:54;;;;;;;;;;;;;;;12.43;72.18;95181.56;4218220;28;20459;-59
2023/05/14 06:32:56;;;;;;;;;;;;;;;12.43;72.24;95182.41;4216794;28;19920;-61
2023/05/14 06:34:57;;;;;;;;;;;;;;;12.43;72.28;95189.44;4219284;28;19927;-61
2023/05/14 06:37:01;;;;;;;;;;;;;;;12.41;72.69;95194.88;4221182;28;19925;-59
2023/05/14 06:39:03;;;;;;;;;;;;;;;12.44;72.72;95185.84;4221286;28;19993;-60
2023/05/14 06:41:04;;;;;;;;;;;;;;;12.46;72.49;95182.06;4219874;28;19919;-61
2023/05/14 06:43:06;;;;;;;;;;;;;;;12.50;72.74;95178.16;4220136;28;20519;-61
2023/05/14 06:45:07;;;;;;;;;;;;;;;12.50;72.46;95183.41;4224515;28;19920;-60
2023/05/14 06:47:09;;;;;;;;;;;;;;;12.52;72.40;95191.13;4213134;28;19920;-61
2023/05/14 06:49:12;;;;;;;;;;;;;;;12.50;72.30;95180.78;4213330;28;19969;-60
2023/05/14 06:51:13;;;;;;;;;;;;;;;12.43;72.89;95165.78;4212446;28;20400;-60
2023/05/14 06:53:15;;;;;;;;;;;;;;;12.40;71.86;95171.38;4210574;28;19920;-61
2023/05/14 06:55:16;;;;;;;;;;;;;;;12.45;72.15;95159.41;4212266;28;19936;-60
2023/05/14 06:57:18;;;;;;;;;;;;;;;12.44;71.80;95160.38;4212060;28;19920;-62
2023/05/14 06:59:19;;;;;;;;;;;;;;;12.45;72.08;95155.94;4218236;28;20043;-61
2023/05/14 07:01:21;;;;;;;;;;;;;;;12.46;72.04;95160.25;4218136;28;19927;-62
2023/05/14 07:03:22;;;;;;;;;;;;;;;12.39;71.87;95157.44;4223587;28;19931;-62
2023/05/14 07:05:24;;;;;;;;;;;;;;;12.25;72.04;95158.84;4227167;28;19928;-61
2023/05/14 07:07:26;;;;;;;;;;;;;;;12.28;72.46;95169.03;4223795;28;19953;-61
2023/05/14 07:09:27;;;;;;;;;;;;;;;12.33;72.74;95165.94;4223704;28;20322;-58
2023/05/14 07:11:29;;;;;;;;;;;;;;;12.40;72.73;95163.50;4225613;28;20381;-62
2023/05/14 07:13:30;;;;;;;;;;;;;;;12.50;72.75;95172.06;4222045;28;20469;-62
2023/05/14 07:15:32;;;;;;;;;;;;;;;12.54;71.85;95183.06;4220569;28;20423;-61
2023/05/14 07:17:33;;;;;;;;;;;;;;;12.61;72.41;95195.44;4225634;28;19919;-61
2023/05/14 07:19:35;;;;;;;;;;;;;;;12.65;72.04;95207.28;4213369;28;20436;-62
2023/05/14 07:21:36;;;;;;;;;;;;;;;12.56;71.63;95205.59;4213006;28;19924;-62
2023/05/14 07:23:38;;;;;;;;;;;;;;;12.53;72.16;95198.03;4214048;28;20421;-63
2023/05/14 07:25:39;;;;;;;;;;;;;;;12.52;72.33;95192.91;4213872;28;19971;-63
2023/05/14 07:27:41;;;;;;;;;;;;;;;12.55;72.66;95190.00;4214899;28;19965;-63
2023/05/14 07:29:42;;;;;;;;;;;;;;;12.56;72.88;95194.25;4225673;28;19931;-61
2023/05/14 07:31:44;;;;;;;;;;;;;;;12.55;73.24;95192.63;4218980;28;20499;-61
2023/05/14 07:33:45;;;;;;;;;;;;;;;12.55;72.62;95187.38;4229120;28;19920;-62
2023/05/14 07:35:47;;;;;;;;;;;;;;;12.37;72.71;95185.66;4231654;28;19923;-60
2023/05/14 07:37:48;;;;;;;;;;;;;;;12.38;73.50;95195.16;4229206;28;20254;-63
2023/05/14 07:39:53;;;;;;;;;;;;;;;12.19;72.71;95196.22;4226914;28;19955;-64
2023/05/14 07:41:54;;;;;;;;;;;;;;;12.19;73.76;95201.47;4218286;28;19982;-61
2023/05/14 07:43:55;;;;;;;;;;;;;;;12.28;74.23;95197.94;4229571;28;20373;-59
2023/05/14 07:45:57;;;;;;;;;;;;;;;12.40;74.37;95193.22;4206325;28;20387;-60
2023/05/14 07:47:58;;;;;;;;;;;;;;;12.55;74.27;95196.06;4229719;28;20068;-65
2023/05/14 07:50:00;;;;;;;;;;;;;;;12.63;73.78;95203.97;4230926;28;20369;-63
2023/05/14 07:52:02;;;;;;;;;;;;;;;12.69;73.43;95207.75;4218291;28;19928;-62
2023/05/14 07:54:03;;;;;;;;;;;;;;;12.70;72.93;95207.59;4227219;28;19955;-63
2023/05/14 07:56:05;;;;;;;;;;;;;;;12.76;72.53;95207.97;4230018;28;20014;-62
2023/05/14 07:58:07;;;;;;;;;;;;;;;12.82;73.00;95199.41;4219298;28;19926;-61
2023/05/14 08:00:08;;;;;;;;;;;;;;;12.88;73.10;95206.66;4217865;28;20386;-62
2023/05/14 08:02:11;;;;;;;;;;;;;;;12.84;72.28;95203.56;4216057;28;19932;-61
2023/05/14 08:04:15;;;;;;;;;;;;;;;12.89;72.68;95209.16;4215149;28;19930;-62
2023/05/14 08:06:16;;;;;;;;;;;;;;;12.78;72.46;95208.63;4214800;28;20007;-61
2023/05/14 08:08:18;;;;;;;;;;;;;;;12.70;72.70;95219.94;4216747;28;19920;-60
2023/05/14 08:10:19;;;;;;;;;;;;;;;12.72;73.20;95220.59;4214970;28;19978;-62
2023/05/14 08:12:21;;;;;;;;;;;;;;;12.75;72.81;95214.19;4214309;28;19920;-63
2023/05/14 08:14:23;;;;;;;;;;;;;;;12.72;72.08;95198.75;4215061;28;19920;-62
2023/05/14 08:16:25;;;;;;;;;;;;;;;12.70;72.50;95189.22;4214099;28;20290;-61
2023/05/14 08:18:26;;;;;;;;;;;;;;;12.62;71.74;95178.66;4217840;28;19920;-62
2023/05/14 08:20:30;;;;;;;;;;;;;;;12.55;72.40;95177.66;4229529;28;19923;-62
2023/05/14 08:22:32;;;;;;;;;;;;;;;12.52;73.33;95182.41;4228525;28;20550;-62
2023/05/14 08:24:33;;;;;;;;;;;;;;;12.51;73.47;95189.47;4223939;28;19927;-61
2023/05/14 08:26:35;;;;;;;;;;;;;;;12.50;72.82;95179.97;4223617;28;20010;-62
2023/05/14 08:28:37;;;;;;;;;;;;;;;12.45;73.20;95176.97;4227207;28;19973;-61
2023/05/14 08:30:38;;;;;;;;;;;;;;;12.52;74.06;95177.16;4215824;28;20219;-63
2023/05/14 08:32:41;;;;;;;;;;;;;;;12.59;74.12;95181.63;4214315;28;19989;-62
2023/05/14 08:34:42;;;;;;;;;;;;;;;12.63;73.59;95177.69;4214386;28;20034;-61
2023/05/14 08:36:44;;;;;;;;;;;;;;;12.72;74.00;95177.72;4225712;28;19970;-63
2023/05/14 08:38:47;;;;;;;;;;;;;;;12.76;73.73;95168.53;4218984;28;19966;-62
2023/05/14 08:40:58;;;;;;;;;;;;;;;12.74;73.87;95162.63;4222755;28;19924;-62
2023/05/14 08:43:00;;;;;;;;;;;;;;;12.68;73.18;95159.63;4226910;28;19931;-61
2023/05/14 08:45:02;;;;;;;;;;;;;;;12.60;73.96;95161.41;4218909;28;20374;-61
2023/05/14 08:47:03;;;;;;;;;;;;;;;12.57;74.12;95149.44;4218860;28;19920;-64
2023/05/14 08:49:07;;;;;;;;;;;;;;;12.62;74.15;95146.31;4216744;28;19920;-62
2023/05/14 08:51:09;;;;;;;;;;;;;;;12.55;73.65;95169.78;4214138;28;19957;-65
2023/05/14 08:53:11;;;;;;;;;;;;;;;12.55;74.31;95168.97;4219122;28;19970;-60
2023/05/14 08:55:12;;;;;;;;;;;;;;;12.59;74.04;95157.97;4213901;28;20385;-65
2023/05/14 08:57:14;;;;;;;;;;;;;;;12.65;74.15;95159.97;4221935;28;20357;-60
2023/05/14 08:59:15;;;;;;;;;;;;;;;12.69;73.79;95156.03;4229143;28;19919;-62
2023/05/14 09:01:17;;;;;;;;;;;;;;;12.73;73.60;95153.06;4218461;28;19942;-61
2023/05/14 09:03:19;;;;;;;;;;;;;;;12.78;73.15;95153.44;4213595;28;20257;-62
2023/05/14 09:05:20;;;;;;;;;;;;;;;12.81;72.58;95169.69;4225585;28;19927;-63
2023/05/14 09:07:22;;;;;;;;;;;;;;;12.89;72.99;95163.63;4213572;28;19959;-63
2023/05/14 09:09:24;;;;;;;;;;;;;;;12.70;71.99;95156.84;4225056;28;19962;-61
2023/05/14 09:11:25;;;;;;;;;;;;;;;12.59;73.04;95168.47;4213514;27;20354;-63
2023/05/14 09:13:27;;;;;;;;;;;;;;;12.55;73.63;95158.44;4217964;28;20409;-61
2023/05/14 09:15:28;;;;;;;;;;;;;;;12.62;74.15;95149.75;4227600;28;19923;-63
2023/05/14 09:17:30;;;;;;;;;;;;;;;12.58;74.03;95153.69;4220529;28;19927;-60
2023/05/14 09:19:31;;;;;;;;;;;;;;;12.64;74.13;95155.66;4225711;28;20018;-63
2023/05/14 09:21:33;;;;;;;;;;;;;;;12.60;73.38;95166.66;4222016;28;19946;-62
2023/05/14 09:23:35;;;;;;;;;;;;;;;12.59;73.06;95165.84;4208071;28;20015;-61
2023/05/14 09:25:36;;;;;;;;;;;;;;;12.48;73.50;95164.34;4215688;28;19920;-59
2023/05/14 09:27:38;;;;;;;;;;;;;;;12.51;74.19;95160.56;4216811;28;20006;-61
2023/05/14 09:29:39;;;;;;;;;;;;;;;12.56;74.34;95150.41;4219158;28;20357;-63
2023/05/14 09:31:41;;;;;;;;;;;;;;;12.56;73.75;95136.44;4215664;28;19928;-60
2023/05/14 09:33:42;;;;;;;;;;;;;;;12.59;74.20;95149.28;4222200;28;19919;-59
2023/05/14 09:35:44;;;;;;;;;;;;;;;12.68;74.97;95149.13;4222071;28;19970;-62
2023/05/14 09:37:46;;;;;;;;;;;;;;;12.77;74.15;95152.59;4218880;28;19984;-62
2023/05/14 09:39:47;;;;;;;;;;;;;;;12.84;74.33;95140.47;4219864;28;20354;-62
2023/05/14 09:41:50;;;;;;;;;;;;;;;12.95;74.23;95139.31;4222392;27;19958;-61
2023/05/14 09:43:52;;;;;;;;;;;;;;;12.97;73.44;95137.34;4220159;28;19920;-63
2023/05/14 09:45:53;;;;;;;;;;;;;;;13.00;73.79;95133.56;4225580;28;19970;-62
2023/05/14 09:47:55;;;;;;;;;;;;;;;12.97;73.20;95128.63;4224828;28;20362;-62
2023/05/14 09:49:57;;;;;;;;;;;;;;;12.89;73.53;95126.81;4211408;28;20351;-63
2023/05/14 09:51:58;;;;;;;;;;;;;;;12.91;72.79;95130.09;4222749;28;19919;-62
2023/05/14 09:54:00;;;;;;;;;;;;;;;12.94;72.85;95126.31;4226648;28;19926;-62
2023/05/14 09:56:02;;;;;;;;;;;;;;;13.02;73.13;95129.78;4227664;28;20012;-62
2023/05/14 09:58:04;;;;;;;;;;;;;;;13.02;72.79;95135.03;4219586;27;19920;-61
2023/05/14 10:00:07;;;;;;;;;;;;;;;13.00;72.30;95131.75;4215942;28;19973;-62
2023/05/14 10:02:36;;;;;;;;;;;;;;;13.06;71.84;95130.28;4212810;28;19928;-61
2023/05/14 10:04:38;;;;;;;;;;;;;;;12.88;71.93;95119.91;4213260;28;19978;-61
2023/05/14 10:06:41;;;;;;;;;;;;;;;12.86;72.15;95111.34;4211239;28;20294;-63
2023/05/14 10:08:43;;;;;;;;;;;;;;;12.83;72.74;95099.34;4215281;28;19924;-61
2023/05/14 10:10:44;;;;;;;;;;;;;;;12.75;73.32;95103.78;4214684;28;20431;-61
2023/05/14 10:12:55;;;;;;;;;;;;;;;12.74;73.69;95108.22;4214684;28;20454;-62
2023/05/14 10:14:57;;;;;;;;;;;;;;;12.76;73.65;95101.00;4226105;28;20400;-61
2023/05/14 10:16:58;;;;;;;;;;;;;;;12.73;73.52;95093.41;4213705;28;19920;-61
2023/05/14 10:19:02;;;;;;;;;;;;;;;12.68;73.51;95080.78;4223560;28;19920;-61
2023/05/14 10:21:04;;;;;;;;;;;;;;;12.68;72.74;95078.16;4204035;28;19964;-62
2023/05/14 10:23:09;;;;;;;;;;;;;;;12.65;72.99;95072.41;4218626;28;20342;-62
2023/05/14 10:25:10;;;;;;;;;;;;;;;12.67;73.62;95086.22;4213887;28;20331;-61
2023/05/14 10:27:12;;;;;;;;;;;;;;;12.66;74.38;95103.78;4212434;28;20426;-64
2023/05/14 10:29:13;;;;;;;;;;;;;;;12.63;73.87;95111.19;4214068;28;20372;-62
2023/05/14 10:31:16;;;;;;;;;;;;;;;12.64;74.20;95102.28;4212830;28;19920;-62
2023/05/14 10:33:17;;;;;;;;;;;;;;;12.72;74.41;95110.19;4212185;28;19920;-63
2023/05/14 10:35:21;;;;;;;;;;;;;;;12.80;74.81;95104.94;4223946;28;19920;-63